KLSE/LSE METAR and TAF weather

Enter ICAO airport designator
Station Type Date Time Source
KLSE METAR 2019/08/17 09:53 UTC NOAA

KLSE 170953Z AUTO 19005KT 10SM CLR 17/15 A2985 RMK AO2 SLP100 T01720150


Station Type Date Time Source
KLSE Decoded METAR 2019/08/17 09:53 UTC NOAA

Station name not available
Aug 17, 2019 - 05:53 AM EDT / 2019.08.17 0953 UTC
Wind: from the S (190 degrees) at 6 MPH (5 KT):0
Visibility: 10 mile(s):0
Sky conditions: clear
Temperature: 63.0 F (17.2 C)
Dew Point: 59.0 F (15.0 C)
Relative Humidity: 86%
Pressure (altimeter): 29.85 in. Hg (1010 hPa)
ob: KLSE 170953Z AUTO 19005KT 10SM CLR 17/15 A2985 RMK AO2 SLP100 T01720150
cycle: 10

Station Type Date Time Source
KLSE TAF 2019/08/17 09:16 UTC NOAA

TAF
AMD KLSE 170914Z 1709/1806 VRB03KT P6SM SCT250
FM171100 15003KT P6SM SCT003
FM171400 18006KT P6SM SKC

Example: see airport list